Crestline, Alabama
Current Conditions -  °F | °C
As of 11:53 PM on Sunday 21 Dec 2014 (Local Time) from KBHM Reporting Station
Overcast Overcast  
Wind Chill: 10°   Ceiling: 800
Heat Index: 10°   Visibility: 10mi
Dew Point:   Wind: 7mph
Humidity: 89%   Direction: 100°E
Pressure: 30.04"   Gusts: NA
Location:  33.5082°N, 86.7399°W
Report Text: KBHM 220553Z 10006KT 10SM OVC008 10/08 A3004 RMK AO2 SLP170 T01000083 10117 20100 401330006 58012
Loading
Personal Weather Stations






























Interactive Weather Map New forecast layout! Learn more

10-Day Weather Forecast

Advertisements
Track Severe Weather on mobile